Time;durP1;ratioP1;P1;durP2;ratioP2;P2;SDS_P1;SDS_P2;PMS_P1;PMS_P2;Temp;Humidity;BMP_temperature;BMP_pressure;BME280_temperature;BME280_humidity;BME280_pressure;Samples;Min_cycle;Max_cycle;Signal;HPM_P1;HPM_P2
2022/10/20 00:01:04;;;;;;;6.53;5.03;;;9.80;83.90;;;;;;5008557;28;20022;-66
2022/10/20 00:03:30;;;;;;;8.48;5.30;;;9.70;83.80;;;;;;5006377;28;20105;-67
2022/10/20 00:06:10;;;;;;;6.18;4.57;;;9.70;83.90;;;;;;5004719;28;20026;-66
2022/10/20 00:08:37;;;;;;;10.68;5.82;;;9.70;84.00;;;;;;5003111;28;20018;-66
2022/10/20 00:11:02;;;;;;;7.50;5.20;;;9.70;84.10;;;;;;5002190;28;20091;-66
2022/10/20 00:13:28;;;;;;;7.93;4.88;;;9.70;84.20;;;;;;5000373;28;20022;-66
2022/10/20 00:15:55;;;;;;;8.10;5.00;;;9.60;84.10;;;;;;5009324;28;20030;-66
2022/10/20 00:18:22;;;;;;;8.32;5.82;;;9.60;84.20;;;;;;5008856;28;20048;-67
2022/10/20 00:20:48;;;;;;;7.38;5.10;;;9.60;84.40;;;;;;5009899;28;20025;-65
2022/10/20 00:23:14;;;;;;;11.13;5.75;;;9.60;84.40;;;;;;5007040;28;20029;-67
2022/10/20 00:25:39;;;;;;;7.10;4.80;;;9.60;84.60;;;;;;5008765;28;20167;-67
2022/10/20 00:28:05;;;;;;;10.15;6.07;;;9.60;84.60;;;;;;5009687;28;20105;-66
2022/10/20 00:30:32;;;;;;;6.38;4.95;;;9.50;84.70;;;;;;5008507;28;20025;-67
2022/10/20 00:32:58;;;;;;;10.60;5.53;;;9.50;84.80;;;;;;5009457;28;20381;-66
2022/10/20 00:35:24;;;;;;;8.90;5.70;;;9.50;84.90;;;;;;5009484;28;20028;-67
2022/10/20 00:37:49;;;;;;;6.53;4.70;;;9.50;84.90;;;;;;5009697;28;20037;-67
2022/10/20 00:40:15;;;;;;;8.23;5.75;;;9.50;85.00;;;;;;5007614;28;20025;-67
2022/10/20 00:42:47;;;;;;;8.00;5.40;;;9.50;84.90;;;;;;5008004;28;20030;-67
2022/10/20 00:45:18;;;;;;;7.63;5.38;;;9.50;84.90;;;;;;5011983;28;20026;-66
2022/10/20 00:47:51;;;;;;;8.07;5.40;;;9.50;84.90;;;;;;5006384;28;20026;-67
2022/10/20 00:50:16;;;;;;;;;;;9.50;84.90;;;;;;5010302;28;20026;-67
2022/10/20 00:52:44;;;;;;;6.25;5.25;;;9.50;84.90;;;;;;5009824;28;19920;-67
2022/10/20 00:55:13;;;;;;;9.20;5.80;;;9.50;85.00;;;;;;5009166;28;20069;-66
2022/10/20 00:57:40;;;;;;;9.65;5.75;;;9.40;85.00;;;;;;5009626;28;20077;-66
2022/10/20 01:00:07;;;;;;;8.60;5.65;;;9.40;85.10;;;;;;5009347;28;20033;-66
2022/10/20 01:02:33;;;;;;;7.80;5.32;;;9.40;85.20;;;;;;5008304;28;20057;-64
2022/10/20 01:04:59;;;;;;;9.32;5.93;;;9.40;85.10;;;;;;5006818;28;20034;-66
2022/10/20 01:07:25;;;;;;;7.25;5.15;;;9.40;85.00;;;;;;5009463;28;20025;-67
2022/10/20 01:09:51;;;;;;;7.07;5.18;;;9.50;85.10;;;;;;5008737;28;20527;-67
2022/10/20 01:12:45;;;;;;;8.05;6.00;;;9.50;85.00;;;;;;5008852;28;20057;-67
2022/10/20 01:15:36;;;;;;;8.32;5.65;;;9.40;84.90;;;;;;5005825;28;20096;-65
2022/10/20 01:18:22;;;;;;;7.90;6.38;;;9.40;85.00;;;;;;5006215;28;20040;-66
2022/10/20 01:20:51;;;;;;;8.23;5.78;;;9.40;85.10;;;;;;5003466;28;20034;-67
2022/10/20 01:23:38;;;;;;;9.15;6.03;;;9.30;85.20;;;;;;5006262;28;20030;-67
2022/10/20 01:26:22;;;;;;;9.18;5.50;;;9.30;85.50;;;;;;5007072;28;20030;-68
2022/10/20 01:29:22;;;;;;;8.25;6.35;;;9.30;85.60;;;;;;5007354;28;20113;-67
2022/10/20 01:32:16;;;;;;;9.77;6.25;;;9.30;85.60;;;;;;4985268;28;20042;-67
2022/10/20 01:34:51;;;;;;;8.65;5.88;;;9.30;85.80;;;;;;5005320;28;20040;-67
2022/10/20 01:37:34;;;;;;;8.18;5.80;;;9.20;85.90;;;;;;5007998;28;20097;-67
2022/10/20 01:40:26;;;;;;;7.32;5.80;;;9.20;86.10;;;;;;5009021;28;20029;-67
2022/10/20 01:42:53;;;;;;;6.80;5.38;;;9.20;86.10;;;;;;5007900;28;20029;-67
2022/10/20 01:45:20;;;;;;;7.88;6.28;;;9.20;86.10;;;;;;5003717;28;20038;-67
2022/10/20 01:47:48;;;;;;;10.15;6.32;;;9.20;86.10;;;;;;5008807;28;20037;-67
2022/10/20 01:50:16;;;;;;;9.75;6.28;;;9.10;86.10;;;;;;5006115;28;20088;-67
2022/10/20 01:52:41;;;;;;;9.07;5.88;;;9.10;86.30;;;;;;5008901;28;20033;-67
2022/10/20 01:55:17;;;;;;;10.98;6.30;;;9.10;86.40;;;;;;5007575;28;20026;-67
2022/10/20 01:58:11;;;;;;;9.85;6.28;;;9.20;86.50;;;;;;5009005;28;20029;-67
2022/10/20 02:00:38;;;;;;;8.70;5.57;;;9.10;86.40;;;;;;5008083;28;21608;-67
2022/10/20 02:03:12;;;;;;;8.50;6.10;;;9.10;86.40;;;;;;5006195;28;20056;-67
2022/10/20 02:06:09;;;;;;;9.07;6.28;;;9.10;86.50;;;;;;5004968;28;20022;-67
2022/10/20 02:08:38;;;;;;;8.18;5.97;;;9.10;86.60;;;;;;5007455;28;20057;-67
2022/10/20 02:11:06;;;;;;;7.40;5.82;;;9.10;86.70;;;;;;5006982;28;20026;-67
2022/10/20 02:13:36;;;;;;;10.23;6.43;;;9.10;86.70;;;;;;5006101;28;20014;-67
2022/10/20 02:16:07;;;;;;;7.80;5.95;;;9.10;86.70;;;;;;5007060;28;20038;-66
2022/10/20 02:18:39;;;;;;;9.13;6.63;;;9.10;86.80;;;;;;5008488;28;20038;-67
2022/10/20 02:21:06;;;;;;;7.95;5.55;;;9.10;86.80;;;;;;5008470;28;20339;-67
2022/10/20 02:23:36;;;;;;;8.73;6.18;;;9.10;86.90;;;;;;5005094;28;20030;-67
2022/10/20 02:26:04;;;;;;;9.35;6.63;;;9.10;87.00;;;;;;5006752;28;20570;-68
2022/10/20 02:28:32;;;;;;;6.80;5.35;;;9.10;86.90;;;;;;5010600;28;20022;-67
2022/10/20 02:30:58;;;;;;;9.45;6.38;;;9.10;86.80;;;;;;5010859;28;20045;-67
2022/10/20 02:33:24;;;;;;;9.45;6.18;;;9.10;86.80;;;;;;5012088;28;20673;-65
2022/10/20 02:35:56;;;;;;;11.93;6.05;;;9.10;86.90;;;;;;5009326;28;20480;-67
2022/10/20 02:38:22;;;;;;;9.18;6.60;;;9.10;87.20;;;;;;5008548;28;20663;-67
2022/10/20 02:40:48;;;;;;;8.18;6.50;;;9.10;87.20;;;;;;5010621;28;20022;-67
2022/10/20 02:43:13;;;;;;;7.75;5.90;;;9.10;87.20;;;;;;5010668;28;20034;-67
2022/10/20 02:45:39;;;;;;;7.50;5.40;;;9.10;87.20;;;;;;5013711;28;20025;-66
2022/10/20 02:48:06;;;;;;;9.98;5.70;;;9.10;87.10;;;;;;5009247;28;20083;-66
2022/10/20 02:50:31;;;;;;;10.02;6.10;;;9.10;87.00;;;;;;5010645;28;20564;-66
2022/10/20 02:52:57;;;;;;;10.18;5.93;;;9.10;87.00;;;;;;5009628;28;20014;-66
2022/10/20 02:55:22;;;;;;;8.77;5.90;;;9.10;87.00;;;;;;5010722;28;20034;-66
2022/10/20 02:57:48;;;;;;;9.95;6.43;;;9.10;87.00;;;;;;5011097;28;20018;-66
2022/10/20 03:00:14;;;;;;;7.72;5.57;;;9.10;87.00;;;;;;5012212;28;20042;-68
2022/10/20 03:02:39;;;;;;;9.18;6.50;;;9.20;87.00;;;;;;5011046;28;20108;-67
2022/10/20 03:05:05;;;;;;;9.57;6.25;;;9.10;87.20;;;;;;5011124;28;20030;-67
2022/10/20 03:07:30;;;;;;;6.13;5.22;;;9.00;87.30;;;;;;5006762;28;20484;-66
2022/10/20 03:09:56;;;;;;;9.18;6.25;;;9.10;87.40;;;;;;5012036;28;20104;-66
2022/10/20 03:12:22;;;;;;;7.50;5.68;;;9.10;87.40;;;;;;5011913;28;20036;-66
2022/10/20 03:14:47;;;;;;;9.70;6.72;;;9.00;87.50;;;;;;5010471;28;20044;-66
2022/10/20 03:17:13;;;;;;;10.55;6.47;;;9.10;87.50;;;;;;5011898;28;20065;-67
2022/10/20 03:19:40;;;;;;;10.82;6.10;;;9.00;87.60;;;;;;5008591;28;20022;-68
2022/10/20 03:22:05;;;;;;;6.63;5.60;;;9.10;87.60;;;;;;5009755;28;20477;-68
2022/10/20 03:24:31;;;;;;;7.32;5.53;;;9.10;87.50;;;;;;5008839;28;20093;-68
2022/10/20 03:26:56;;;;;;;7.85;6.00;;;9.10;87.40;;;;;;5007783;28;20443;-68
2022/10/20 03:29:22;;;;;;;8.93;6.03;;;9.10;87.50;;;;;;5010894;28;20488;-68
2022/10/20 03:31:48;;;;;;;8.13;5.70;;;9.00;87.40;;;;;;5011971;28;20025;-68
2022/10/20 03:34:13;;;;;;;8.75;6.40;;;9.10;87.40;;;;;;5011549;28;20080;-68
2022/10/20 03:36:39;;;;;;;8.18;6.10;;;9.00;87.40;;;;;;5010427;28;20096;-68
2022/10/20 03:39:04;;;;;;;9.07;6.70;;;9.00;87.50;;;;;;5011026;28;20029;-67
2022/10/20 03:41:30;;;;;;;9.93;6.35;;;9.00;88.20;;;;;;5010996;28;20366;-67
2022/10/20 03:43:55;;;;;;;7.40;5.47;;;9.00;87.70;;;;;;5008510;28;20030;-68
2022/10/20 03:46:21;;;;;;;9.88;6.80;;;9.00;87.80;;;;;;5011058;28;20535;-68
2022/10/20 03:48:46;;;;;;;7.25;5.75;;;9.00;87.90;;;;;;5010553;28;20045;-67
2022/10/20 03:51:13;;;;;;;8.57;6.45;;;9.00;87.90;;;;;;5011016;28;20033;-68
2022/10/20 03:53:38;;;;;;;10.25;6.43;;;9.00;88.10;;;;;;5009574;28;20041;-67
2022/10/20 03:56:06;;;;;;;8.20;6.10;;;9.00;88.00;;;;;;5010236;28;20030;-67
2022/10/20 03:58:31;;;;;;;9.75;6.55;;;9.00;88.10;;;;;;5010537;28;20109;-67
2022/10/20 04:00:57;;;;;;;11.80;6.63;;;9.00;88.10;;;;;;5010289;28;20141;-67
2022/10/20 04:03:22;;;;;;;8.93;6.30;;;9.00;88.20;;;;;;5010129;28;20092;-67
2022/10/20 04:05:48;;;;;;;10.60;7.65;;;9.00;88.30;;;;;;5009918;28;20536;-67
2022/10/20 04:08:14;;;;;;;9.57;6.95;;;9.00;88.40;;;;;;5010298;28;20018;-68
2022/10/20 04:10:39;;;;;;;9.13;6.82;;;9.00;88.90;;;;;;5010504;28;20101;-67
2022/10/20 04:13:05;;;;;;;10.88;6.63;;;9.00;88.30;;;;;;5010722;28;20404;-67
2022/10/20 04:15:31;;;;;;;8.38;6.70;;;9.00;88.40;;;;;;5009214;28;20041;-67
2022/10/20 04:17:56;;;;;;;10.48;6.93;;;9.00;88.40;;;;;;5009081;28;20026;-67
2022/10/20 04:20:22;;;;;;;10.55;6.60;;;9.00;88.40;;;;;;5007651;28;20684;-66
2022/10/20 04:22:47;;;;;;;8.52;6.75;;;9.00;88.40;;;;;;5009868;28;20026;-66
2022/10/20 04:25:13;;;;;;;8.63;6.93;;;9.00;88.50;;;;;;5009627;28;20024;-66
2022/10/20 04:27:39;;;;;;;10.63;6.80;;;9.00;88.50;;;;;;5009736;28;20396;-66
2022/10/20 04:30:05;;;;;;;9.70;6.53;;;9.00;88.60;;;;;;5010222;28;20365;-66
2022/10/20 04:32:31;;;;;;;8.40;6.60;;;9.00;88.60;;;;;;5009869;28;20018;-66
2022/10/20 04:34:56;;;;;;;8.82;7.13;;;9.10;88.60;;;;;;5009835;28;20025;-67
2022/10/20 04:37:22;;;;;;;9.43;6.68;;;9.10;88.60;;;;;;5009781;28;20068;-66
2022/10/20 04:39:49;;;;;;;7.85;6.13;;;9.10;88.60;;;;;;5009819;28;20022;-66
2022/10/20 04:42:16;;;;;;;9.68;6.82;;;9.10;88.50;;;;;;5008424;28;20049;-66
2022/10/20 04:44:41;;;;;;;9.57;6.80;;;9.10;88.60;;;;;;5010077;28;20062;-66
2022/10/20 04:47:07;;;;;;;9.15;6.85;;;9.10;88.60;;;;;;5008352;28;20057;-66
2022/10/20 04:49:32;;;;;;;9.25;6.43;;;9.10;88.60;;;;;;5009179;28;20133;-66
2022/10/20 04:51:58;;;;;;;9.30;7.32;;;9.10;88.60;;;;;;5008920;28;20123;-66
2022/10/20 04:54:23;;;;;;;10.73;7.35;;;9.10;88.50;;;;;;5009659;28;20021;-66
2022/10/20 04:56:49;;;;;;;11.52;7.53;;;9.10;88.60;;;;;;5006949;28;20049;-66
2022/10/20 04:59:14;;;;;;;9.80;7.47;;;9.10;88.70;;;;;;5009874;28;20057;-66
2022/10/20 05:01:40;;;;;;;11.38;7.97;;;9.10;88.70;;;;;;5008483;28;20022;-65
2022/10/20 05:04:05;;;;;;;10.73;7.45;;;9.10;88.80;;;;;;5008239;28;20048;-66
2022/10/20 05:06:32;;;;;;;9.30;6.95;;;9.10;88.80;;;;;;5009328;28;20033;-67
2022/10/20 05:09:00;;;;;;;10.50;7.55;;;9.20;88.90;;;;;;5007752;28;20511;-66
2022/10/20 05:11:28;;;;;;;9.52;6.95;;;9.20;88.80;;;;;;5008614;28;20033;-66
2022/10/20 05:13:55;;;;;;;8.60;7.20;;;9.20;88.80;;;;;;5006337;28;20053;-67
2022/10/20 05:16:21;;;;;;;10.23;7.00;;;9.20;88.70;;;;;;4997315;28;20065;-66
2022/10/20 05:18:47;;;;;;;11.55;7.88;;;9.20;88.60;;;;;;5007880;28;20079;-66
2022/10/20 05:21:19;;;;;;;9.75;7.53;;;9.30;88.60;;;;;;5008825;28;20026;-67
2022/10/20 05:23:45;;;;;;;8.90;6.40;;;9.30;88.60;;;;;;5008966;28;20068;-66
2022/10/20 05:26:14;;;;;;;9.90;7.00;;;9.20;88.60;;;;;;5007260;28;20030;-67
2022/10/20 05:28:43;;;;;;;10.63;7.85;;;9.20;88.70;;;;;;5008655;28;20113;-66
2022/10/20 05:31:09;;;;;;;11.02;7.78;;;9.30;88.80;;;;;;5005848;28;20034;-66
2022/10/20 05:33:34;;;;;;;8.93;7.10;;;9.30;88.80;;;;;;5009229;28;20503;-66
2022/10/20 05:36:06;;;;;;;14.85;8.00;;;9.30;88.70;;;;;;5009236;28;20554;-67
2022/10/20 05:38:31;;;;;;;10.13;7.82;;;9.40;88.70;;;;;;5009039;28;20168;-67
2022/10/20 05:41:18;;;;;;;10.75;7.93;;;9.40;88.60;;;;;;5009966;28;20502;-67
2022/10/20 05:43:48;;;;;;;8.90;6.93;;;9.40;88.60;;;;;;5010181;28;20400;-67
2022/10/20 05:46:14;;;;;;;9.32;7.50;;;9.40;88.60;;;;;;5009619;28;20499;-67
2022/10/20 05:48:40;;;;;;;9.05;7.05;;;9.40;88.50;;;;;;5010167;28;20030;-65
2022/10/20 05:51:11;;;;;;;10.45;7.95;;;9.30;88.40;;;;;;5010098;28;20018;-66
2022/10/20 05:53:38;;;;;;;8.77;6.95;;;9.40;88.50;;;;;;5010323;28;20029;-66
2022/10/20 05:56:07;;;;;;;9.90;7.80;;;9.30;88.50;;;;;;4994929;28;20023;-67
2022/10/20 05:58:32;;;;;;;9.13;7.78;;;9.40;88.70;;;;;;5008018;28;20033;-66
2022/10/20 06:01:08;;;;;;;10.70;8.38;;;9.30;88.70;;;;;;5013739;28;20026;-67
2022/10/20 06:03:34;;;;;;;10.90;8.07;;;9.40;88.70;;;;;;5013695;28;20026;-66
2022/10/20 06:06:00;;;;;;;10.73;7.57;;;9.40;88.70;;;;;;5013683;28;20101;-67
2022/10/20 06:08:29;;;;;;;9.77;7.13;;;9.40;88.60;;;;;;5013729;28;20473;-67
2022/10/20 06:10:54;;;;;;;10.15;7.72;;;9.50;88.50;;;;;;5012706;28;20488;-66
2022/10/20 06:13:20;;;;;;;11.32;7.50;;;9.50;88.30;;;;;;5013633;28;20088;-67
2022/10/20 06:15:46;;;;;;;9.80;7.35;;;9.50;88.20;;;;;;5013489;28;20033;-66
2022/10/20 06:18:12;;;;;;;8.10;6.78;;;9.50;88.40;;;;;;5013712;28;20038;-67
2022/10/20 06:20:38;;;;;;;9.30;7.78;;;9.50;88.40;;;;;;5013673;28;20036;-66
2022/10/20 06:23:03;;;;;;;10.90;7.97;;;9.50;88.50;;;;;;5009141;28;20030;-66
2022/10/20 06:25:29;;;;;;;10.07;7.15;;;9.50;88.50;;;;;;5006338;28;20045;-66
2022/10/20 06:27:54;;;;;;;9.10;6.53;;;9.50;88.40;;;;;;5012640;28;20030;-67
2022/10/20 06:30:20;;;;;;;10.43;7.53;;;9.60;88.30;;;;;;5012973;28;20030;-68
2022/10/20 06:32:45;;;;;;;9.88;8.07;;;9.70;88.10;;;;;;5009799;28;20053;-68
2022/10/20 06:35:11;;;;;;;12.52;8.48;;;9.70;88.10;;;;;;5011392;28;20006;-65
2022/10/20 06:37:36;;;;;;;10.80;7.78;;;9.70;88.00;;;;;;5013144;28;20030;-68
2022/10/20 06:40:02;;;;;;;8.05;6.30;;;9.70;87.90;;;;;;5013457;28;20034;-66
2022/10/20 06:42:28;;;;;;;12.10;8.57;;;9.70;87.80;;;;;;5011813;28;20034;-66
2022/10/20 06:44:54;;;;;;;8.20;6.53;;;9.70;87.90;;;;;;5021613;28;20022;-66
2022/10/20 06:47:20;;;;;;;9.80;7.93;;;9.70;88.00;;;;;;5009789;28;20042;-66
2022/10/20 06:49:47;;;;;;;9.82;7.47;;;9.70;87.80;;;;;;5012925;28;20037;-66
2022/10/20 06:52:13;;;;;;;10.15;7.65;;;9.70;87.90;;;;;;5012899;28;20030;-65
2022/10/20 06:54:38;;;;;;;10.82;7.90;;;9.70;87.80;;;;;;5011528;28;20105;-66
2022/10/20 06:57:04;;;;;;;10.32;7.63;;;9.70;87.90;;;;;;5012219;28;20125;-64
2022/10/20 06:59:29;;;;;;;9.20;7.63;;;9.70;87.90;;;;;;5012690;28;20553;-64
2022/10/20 07:01:55;;;;;;;10.77;7.43;;;9.80;87.90;;;;;;5012534;28;20070;-66
2022/10/20 07:04:20;;;;;;;10.35;8.05;;;9.80;87.80;;;;;;5012901;28;20041;-66
2022/10/20 07:06:46;;;;;;;10.57;8.23;;;9.80;87.80;;;;;;5012133;28;20026;-64
2022/10/20 07:09:15;;;;;;;11.10;8.05;;;9.90;87.90;;;;;;5011478;28;20036;-64
2022/10/20 07:11:41;;;;;;;10.38;7.80;;;9.90;87.80;;;;;;5007686;28;20045;-64
2022/10/20 07:14:06;;;;;;;12.40;7.82;;;9.90;87.80;;;;;;5012402;28;20064;-67
2022/10/20 07:16:33;;;;;;;9.38;7.55;;;10.00;87.70;;;;;;5006703;28;20037;-65
2022/10/20 07:19:00;;;;;;;10.15;7.75;;;10.00;87.60;;;;;;5011949;28;20025;-65
2022/10/20 07:21:27;;;;;;;10.55;7.53;;;10.10;87.60;;;;;;5002907;28;20504;-65
2022/10/20 07:23:55;;;;;;;10.32;7.82;;;10.20;87.50;;;;;;5006935;28;20033;-65
2022/10/20 07:26:40;;;;;;;12.50;7.90;;;10.20;87.20;;;;;;5008434;28;20037;-66
2022/10/20 07:29:06;;;;;;;11.88;7.82;;;10.20;87.10;;;;;;5008315;28;20025;-67
2022/10/20 07:31:34;;;;;;;10.43;7.55;;;10.30;87.00;;;;;;5006939;28;20018;-67
2022/10/20 07:34:01;;;;;;;11.43;8.60;;;10.30;87.00;;;;;;5011381;28;20014;-67
2022/10/20 07:36:29;;;;;;;11.43;8.85;;;10.30;86.80;;;;;;4998280;28;20029;-68
2022/10/20 07:38:57;;;;;;;12.55;8.50;;;10.30;86.70;;;;;;5004055;28;20088;-68
2022/10/20 07:41:25;;;;;;;11.63;9.13;;;10.40;86.80;;;;;;5010945;28;20480;-68
2022/10/20 07:43:51;;;;;;;13.23;8.85;;;10.40;86.80;;;;;;5010986;28;20053;-68
2022/10/20 07:46:17;;;;;;;9.50;6.85;;;10.40;86.80;;;;;;5010809;28;20056;-68
2022/10/20 07:48:42;;;;;;;10.18;7.03;;;10.40;86.80;;;;;;5011871;28;20029;-67
2022/10/20 07:51:27;;;;;;;10.52;7.43;;;10.50;86.80;;;;;;5011748;28;20030;-67
2022/10/20 07:53:55;;;;;;;11.23;9.30;;;10.50;86.60;;;;;;5002504;28;20105;-66
2022/10/20 07:56:21;;;;;;;10.75;8.75;;;10.50;86.50;;;;;;5012013;28;20036;-67
2022/10/20 07:58:47;;;;;;;10.68;8.45;;;10.60;86.70;;;;;;5012198;28;20037;-67
2022/10/20 08:01:14;;;;;;;10.93;8.23;;;10.60;86.60;;;;;;5011870;28;20494;-68
2022/10/20 08:03:39;;;;;;;12.30;8.88;;;10.70;86.40;;;;;;5011875;28;20029;-67
2022/10/20 08:06:05;;;;;;;12.98;8.88;;;10.70;86.20;;;;;;5012292;28;20112;-67
2022/10/20 08:08:31;;;;;;;16.00;10.20;;;10.80;86.00;;;;;;5011847;28;20153;-67
2022/10/20 08:10:57;;;;;;;12.35;9.30;;;10.80;85.90;;;;;;5012105;28;20652;-67
2022/10/20 08:13:24;;;;;;;11.00;8.27;;;10.70;86.00;;;;;;5011503;28;20041;-67
2022/10/20 08:15:49;;;;;;;11.75;8.40;;;10.80;85.90;;;;;;5011789;28;20112;-67
2022/10/20 08:18:15;;;;;;;10.52;8.52;;;10.80;85.90;;;;;;5011782;28;20084;-67
2022/10/20 08:20:40;;;;;;;11.30;8.90;;;10.80;85.80;;;;;;5008082;28;20030;-67
2022/10/20 08:23:06;;;;;;;10.38;8.13;;;10.90;86.60;;;;;;5010928;28;20026;-67
2022/10/20 08:25:32;;;;;;;12.07;8.73;;;10.90;85.90;;;;;;5011285;28;20042;-68
2022/10/20 08:27:57;;;;;;;12.32;9.18;;;10.90;85.80;;;;;;5010362;28;20053;-69
2022/10/20 08:30:23;;;;;;;11.32;8.10;;;11.00;85.70;;;;;;5010047;28;20396;-67
2022/10/20 08:32:52;;;;;;;10.60;7.95;;;11.00;85.60;;;;;;5011267;28;20030;-68
2022/10/20 08:35:19;;;;;;;12.10;8.82;;;11.20;85.60;;;;;;5011518;28;20061;-67
2022/10/20 08:37:44;;;;;;;11.15;7.90;;;11.20;85.50;;;;;;5011250;28;20022;-67
2022/10/20 08:40:16;;;;;;;11.98;8.27;;;11.20;85.40;;;;;;5011416;28;20033;-67
2022/10/20 08:42:44;;;;;;;9.68;7.47;;;11.30;85.30;;;;;;5011149;28;20076;-67
2022/10/20 08:45:20;;;;;;;9.65;7.60;;;11.50;85.20;;;;;;5010814;28;20028;-68
2022/10/20 08:47:48;;;;;;;11.50;7.75;;;11.70;84.90;;;;;;5010744;28;20493;-66
2022/10/20 08:50:16;;;;;;;11.40;8.10;;;11.80;84.60;;;;;;5010712;28;20036;-67
2022/10/20 08:52:44;;;;;;;11.13;8.05;;;11.90;84.40;;;;;;5006314;28;20017;-67
2022/10/20 08:55:28;;;;;;;11.27;8.70;;;12.00;84.10;;;;;;5011350;28;20021;-66
2022/10/20 08:57:58;;;;;;;12.75;8.73;;;12.00;83.70;;;;;;5010718;28;20046;-66
2022/10/20 09:00:25;;;;;;;11.15;8.98;;;12.10;83.60;;;;;;5010628;28;20088;-66
2022/10/20 09:02:51;;;;;;;9.60;7.40;;;12.10;83.40;;;;;;5010376;28;20034;-66
2022/10/20 09:05:24;;;;;;;12.07;7.93;;;12.20;83.50;;;;;;5029467;28;20018;-67
2022/10/20 09:07:51;;;;;;;13.88;8.57;;;12.30;83.30;;;;;;5023598;28;20100;-67
2022/10/20 09:10:31;;;;;;;12.30;9.15;;;12.40;83.10;;;;;;5010955;28;20026;-66
2022/10/20 09:12:57;;;;;;;11.18;8.32;;;12.40;83.00;;;;;;5009964;28;20108;-66
2022/10/20 09:15:25;;;;;;;10.85;8.73;;;12.50;83.00;;;;;;5010246;28;20034;-66
2022/10/20 09:18:03;;;;;;;11.88;8.75;;;12.60;82.90;;;;;;5009959;28;20633;-66
2022/10/20 09:20:34;;;;;;;10.90;8.80;;;12.70;82.80;;;;;;5008880;28;20014;-67
2022/10/20 09:23:00;;;;;;;11.70;9.75;;;12.70;82.70;;;;;;5014426;28;20026;-67
2022/10/20 09:25:26;;;;;;;10.43;7.45;;;12.80;82.60;;;;;;5024085;28;20502;-67
2022/10/20 09:27:53;;;;;;;10.07;8.05;;;12.90;82.60;;;;;;5004623;28;20030;-68
2022/10/20 09:30:32;;;;;;;10.80;8.27;;;13.00;82.40;;;;;;4999576;28;20385;-67
2022/10/20 09:32:58;;;;;;;12.05;8.75;;;13.10;82.20;;;;;;5005123;28;20556;-68
2022/10/20 09:35:31;;;;;;;10.93;8.48;;;13.10;82.10;;;;;;4994051;28;20075;-67
2022/10/20 09:38:23;;;;;;;12.48;9.20;;;13.20;82.10;;;;;;5009106;28;20370;-68
2022/10/20 09:41:18;;;;;;;11.95;9.00;;;13.20;81.80;;;;;;5013541;28;20026;-68
2022/10/20 09:43:52;;;;;;;11.32;8.20;;;13.30;81.90;;;;;;5003453;28;20110;-67
2022/10/20 09:46:21;;;;;;;11.70;8.70;;;13.30;82.00;;;;;;4994749;28;20064;-67
2022/10/20 09:48:49;;;;;;;12.75;9.60;;;13.30;82.10;;;;;;5003363;28;20021;-68
2022/10/20 09:51:18;;;;;;;12.30;8.80;;;13.30;82.20;;;;;;4996174;28;20559;-65
2022/10/20 09:53:50;;;;;;;11.68;8.02;;;13.30;82.10;;;;;;5001400;28;20018;-66
2022/10/20 09:56:27;;;;;;;11.77;9.07;;;13.40;82.20;;;;;;5021053;28;20049;-66
2022/10/20 09:58:54;;;;;;;10.38;8.38;;;13.40;82.10;;;;;;5006935;28;20389;-66
2022/10/20 10:01:20;;;;;;;10.88;8.85;;;13.50;82.10;;;;;;4999947;28;20034;-66
2022/10/20 10:03:48;;;;;;;11.07;8.43;;;13.60;82.00;;;;;;5001317;28;20058;-66
2022/10/20 10:06:28;;;;;;;8.98;7.60;;;13.60;81.90;;;;;;4999585;28;20023;-67
2022/10/20 10:08:55;;;;;;;11.90;8.85;;;13.60;82.00;;;;;;5000116;28;20488;-68
2022/10/20 10:11:25;;;;;;;10.73;8.10;;;13.70;81.90;;;;;;5005435;28;20497;-67
2022/10/20 10:13:52;;;;;;;11.27;7.50;;;13.70;81.90;;;;;;5006185;28;20026;-68
2022/10/20 10:16:23;;;;;;;9.38;7.38;;;13.70;81.90;;;;;;5003608;28;20511;-68
2022/10/20 10:19:01;;;;;;;11.25;8.63;;;13.80;81.90;;;;;;4999990;28;20029;-68
2022/10/20 10:21:29;;;;;;;8.55;7.10;;;13.70;81.90;;;;;;5007021;28;20660;-68
2022/10/20 10:23:57;;;;;;;10.82;7.63;;;13.80;81.90;;;;;;5003213;28;20022;-68
2022/10/20 10:26:46;;;;;;;11.73;9.07;;;13.90;82.00;;;;;;5003188;28;20080;-68
2022/10/20 10:29:17;;;;;;;14.75;10.20;;;13.80;82.00;;;;;;5003749;28;20020;-68
2022/10/20 10:31:57;;;;;;;11.80;9.40;;;13.70;82.20;;;;;;4995674;28;20034;-68
2022/10/20 10:34:33;;;;;;;10.20;6.75;;;13.80;82.40;;;;;;5008807;28;20032;-67
2022/10/20 10:36:59;;;;;;;10.63;7.40;;;13.80;82.40;;;;;;5011283;28;20080;-67
2022/10/20 10:39:25;;;;;;;14.00;9.07;;;13.90;82.40;;;;;;4996338;28;20030;-68
2022/10/20 10:42:02;;;;;;;12.73;9.88;;;14.00;82.40;;;;;;4996492;28;20114;-68
2022/10/20 10:44:57;;;;;;;11.73;8.50;;;13.90;82.60;;;;;;5003432;28;20084;-67
2022/10/20 10:47:35;;;;;;;12.32;9.13;;;14.00;82.80;;;;;;5003541;28;20382;-67
2022/10/20 10:50:31;;;;;;;10.93;8.90;;;14.00;83.00;;;;;;5007416;28;20026;-68
2022/10/20 10:53:16;;;;;;;10.38;8.02;;;14.00;83.10;;;;;;5000242;28;20025;-68
2022/10/20 10:55:57;;;;;;;14.48;8.52;;;14.00;83.10;;;;;;5012560;28;20041;-68
2022/10/20 10:58:47;;;;;;;9.70;7.68;;;14.10;83.20;;;;;;5002944;28;20033;-68
2022/10/20 11:01:26;;;;;;;11.95;7.95;;;14.10;83.20;;;;;;5011418;28;20038;-67
2022/10/20 11:03:57;;;;;;;13.07;9.50;;;14.20;83.30;;;;;;5005106;28;20030;-68
2022/10/20 11:06:31;;;;;;;12.23;9.48;;;14.20;83.30;;;;;;5004947;28;20033;-65
2022/10/20 11:09:30;;;;;;;10.23;8.18;;;14.30;83.40;;;;;;5007191;28;20022;-67
2022/10/20 11:12:23;;;;;;;14.82;11.43;;;14.30;83.40;;;;;;4995526;28;20066;-67
2022/10/20 11:14:59;;;;;;;;;;;14.20;84.00;;;;;;5006422;28;20386;-66
2022/10/20 11:17:44;;;;;;;11.15;8.15;;;14.30;84.20;;;;;;5016798;28;19913;-66
2022/10/20 11:20:15;;;;;;;12.95;9.73;;;14.30;84.30;;;;;;5007183;28;20045;-66
2022/10/20 11:23:08;;;;;;;11.45;9.23;;;14.30;84.70;;;;;;5003709;28;20027;-65
2022/10/20 11:25:48;;;;;;;10.73;8.38;;;14.30;84.80;;;;;;4998783;28;20537;-67
2022/10/20 11:28:54;;;;;;;13.13;8.40;;;14.30;85.00;;;;;;5002527;28;20029;-67
2022/10/20 11:31:28;;;;;;;10.25;8.55;;;14.30;85.10;;;;;;4989851;28;20034;-65
2022/10/20 11:34:05;;;;;;;12.60;9.00;;;14.30;85.50;;;;;;5004784;28;20077;-66
2022/10/20 11:36:39;;;;;;;12.63;9.68;;;14.30;85.70;;;;;;5015962;28;20034;-67
2022/10/20 11:39:23;;;;;;;12.00;9.00;;;14.30;85.80;;;;;;5016048;28;20053;-67
2022/10/20 11:41:52;;;;;;;13.18;8.70;;;14.40;85.80;;;;;;5006649;28;20030;-67
2022/10/20 11:44:38;;;;;;;13.88;10.32;;;14.40;85.90;;;;;;5010377;28;20388;-67
2022/10/20 11:47:12;;;;;;;10.25;8.50;;;14.40;85.90;;;;;;5003387;28;20021;-67
2022/10/20 11:49:39;;;;;;;11.88;8.63;;;14.40;85.80;;;;;;4997055;28;20102;-67
2022/10/20 11:52:35;;;;;;;10.48;7.97;;;14.40;86.00;;;;;;5000484;28;20022;-68
2022/10/20 11:55:37;;;;;;;12.98;9.13;;;14.40;86.10;;;;;;5007786;28;20068;-67
2022/10/20 11:58:14;;;;;;;11.05;8.30;;;14.40;86.30;;;;;;5021894;28;20620;-67
2022/10/20 12:01:18;;;;;;;11.50;9.35;;;14.40;86.40;;;;;;5005161;28;20029;-67
2022/10/20 12:04:11;;;;;;;15.00;9.23;;;14.40;86.60;;;;;;5002837;28;20427;-67
2022/10/20 12:06:46;;;;;;;11.27;8.80;;;14.30;87.00;;;;;;5006514;28;20025;-66
2022/10/20 12:09:26;;;;;;;10.45;7.55;;;14.30;87.00;;;;;;4995135;28;20469;-66
2022/10/20 12:12:05;;;;;;;10.02;8.68;;;14.40;87.00;;;;;;5010351;28;20091;-66
2022/10/20 12:14:37;;;;;;;11.50;8.98;;;14.30;87.20;;;;;;5002167;28;20417;-68
2022/10/20 12:17:29;;;;;;;9.90;7.22;;;14.30;87.60;;;;;;5008747;28;20030;-67
2022/10/20 12:20:19;;;;;;;11.70;8.82;;;14.30;87.60;;;;;;5002462;28;20088;-67
2022/10/20 12:22:49;;;;;;;13.70;10.63;;;14.30;87.80;;;;;;4999318;28;20113;-67
2022/10/20 12:25:33;;;;;;;12.15;9.43;;;14.30;88.00;;;;;;5001888;28;20022;-66
2022/10/20 12:28:24;;;;;;;12.98;9.93;;;14.30;88.20;;;;;;4998936;28;20046;-67
2022/10/20 12:30:55;;;;;;;12.93;10.63;;;14.20;88.70;;;;;;5005779;28;20419;-67
2022/10/20 12:33:58;;;;;;;15.00;10.73;;;14.30;89.10;;;;;;5002584;28;20022;-66
2022/10/20 12:36:44;;;;;;;11.95;9.73;;;14.20;89.50;;;;;;5007094;28;20029;-67
2022/10/20 12:39:15;;;;;;;13.18;9.88;;;14.20;89.70;;;;;;5015322;28;20524;-67
2022/10/20 12:42:02;;;;;;;13.05;8.93;;;14.20;89.80;;;;;;5000800;28;20045;-66
2022/10/20 12:44:37;;;;;;;12.45;9.23;;;14.20;89.80;;;;;;4998735;28;20053;-66
2022/10/20 12:47:07;;;;;;;11.45;8.55;;;14.20;89.80;;;;;;5006865;28;20026;-65
2022/10/20 12:49:39;;;;;;;12.93;10.23;;;14.30;89.80;;;;;;5002955;28;20101;-65
2022/10/20 12:52:14;;;;;;;13.43;9.93;;;14.30;89.80;;;;;;5007535;28;20022;-64
2022/10/20 12:54:41;;;;;;;13.63;9.90;;;14.30;90.00;;;;;;5008495;28;20022;-64
2022/10/20 12:57:34;;;;;;;13.52;11.07;;;14.30;90.00;;;;;;5006323;28;20037;-65
2022/10/20 12:59:59;;;;;;;9.88;7.63;;;14.40;90.10;;;;;;5008456;28;20433;-65
2022/10/20 13:02:25;;;;;;;13.57;10.50;;;14.50;90.10;;;;;;5009924;28;20054;-65
2022/10/20 13:04:59;;;;;;;11.35;9.52;;;14.50;90.10;;;;;;5009966;28;20026;-65
2022/10/20 13:07:46;;;;;;;14.18;11.45;;;14.50;90.10;;;;;;4999711;28;20046;-65